sensor_id;sensor_type;location;lat;lon;timestamp;P1;durP1;ratioP1;P2;durP2;ratioP2
18973;SDS011;9621;48.690;9.466;2023-08-17T00:00:55;4.80;;;3.28;;
18973;SDS011;9621;48.690;9.466;2023-08-17T00:03:22;4.57;;;3.70;;
18973;SDS011;9621;48.690;9.466;2023-08-17T00:05:49;6.90;;;3.90;;
18973;SDS011;9621;48.690;9.466;2023-08-17T00:08:16;6.30;;;3.92;;
18973;SDS011;9621;48.690;9.466;2023-08-17T00:10:42;8.00;;;3.90;;
18973;SDS011;9621;48.690;9.466;2023-08-17T00:13:09;6.15;;;4.03;;
18973;SDS011;9621;48.690;9.466;2023-08-17T00:15:38;6.25;;;3.88;;
18973;SDS011;9621;48.690;9.466;2023-08-17T00:18:05;4.50;;;3.35;;
18973;SDS011;9621;48.690;9.466;2023-08-17T00:20:32;5.40;;;3.67;;
18973;SDS011;9621;48.690;9.466;2023-08-17T00:22:59;3.80;;;3.35;;
18973;SDS011;9621;48.690;9.466;2023-08-17T00:25:25;5.97;;;4.07;;
18973;SDS011;9621;48.690;9.466;2023-08-17T00:27:52;5.38;;;3.55;;
18973;SDS011;9621;48.690;9.466;2023-08-17T00:30:19;5.95;;;3.65;;
18973;SDS011;9621;48.690;9.466;2023-08-17T00:32:48;7.55;;;3.72;;
18973;SDS011;9621;48.690;9.466;2023-08-17T00:35:15;10.27;;;4.28;;
18973;SDS011;9621;48.690;9.466;2023-08-17T00:37:41;5.38;;;3.85;;
18973;SDS011;9621;48.690;9.466;2023-08-17T00:40:09;4.35;;;3.63;;
18973;SDS011;9621;48.690;9.466;2023-08-17T00:42:36;6.57;;;4.15;;
18973;SDS011;9621;48.690;9.466;2023-08-17T00:45:03;7.60;;;3.92;;
18973;SDS011;9621;48.690;9.466;2023-08-17T00:47:31;4.28;;;3.08;;
18973;SDS011;9621;48.690;9.466;2023-08-17T00:50:00;5.30;;;3.88;;
18973;SDS011;9621;48.690;9.466;2023-08-17T00:52:27;7.18;;;3.60;;
18973;SDS011;9621;48.690;9.466;2023-08-17T00:54:55;5.47;;;3.75;;
18973;SDS011;9621;48.690;9.466;2023-08-17T00:57:22;7.93;;;3.72;;
18973;SDS011;9621;48.690;9.466;2023-08-17T00:59:49;7.60;;;3.67;;
18973;SDS011;9621;48.690;9.466;2023-08-17T01:02:17;6.68;;;3.72;;
18973;SDS011;9621;48.690;9.466;2023-08-17T01:04:45;5.07;;;3.63;;
18973;SDS011;9621;48.690;9.466;2023-08-17T01:07:13;5.75;;;3.60;;
18973;SDS011;9621;48.690;9.466;2023-08-17T01:09:40;6.95;;;4.15;;
18973;SDS011;9621;48.690;9.466;2023-08-17T01:12:08;5.30;;;3.80;;
18973;SDS011;9621;48.690;9.466;2023-08-17T01:14:50;6.13;;;3.55;;
18973;SDS011;9621;48.690;9.466;2023-08-17T01:17:22;6.55;;;3.80;;
18973;SDS011;9621;48.690;9.466;2023-08-17T01:19:54;4.72;;;3.70;;
18973;SDS011;9621;48.690;9.466;2023-08-17T01:22:23;7.55;;;4.30;;
18973;SDS011;9621;48.690;9.466;2023-08-17T01:24:55;7.57;;;3.65;;
18973;SDS011;9621;48.690;9.466;2023-08-17T01:27:23;6.20;;;3.60;;
18973;SDS011;9621;48.690;9.466;2023-08-17T01:29:50;9.07;;;3.80;;
18973;SDS011;9621;48.690;9.466;2023-08-17T01:32:18;5.65;;;3.72;;
18973;SDS011;9621;48.690;9.466;2023-08-17T01:34:54;5.72;;;4.03;;
18973;SDS011;9621;48.690;9.466;2023-08-17T01:37:25;4.15;;;3.33;;
18973;SDS011;9621;48.690;9.466;2023-08-17T01:39:56;4.15;;;3.58;;
18973;SDS011;9621;48.690;9.466;2023-08-17T01:42:25;6.25;;;3.67;;
18973;SDS011;9621;48.690;9.466;2023-08-17T01:44:52;6.68;;;3.70;;
18973;SDS011;9621;48.690;9.466;2023-08-17T01:47:20;7.50;;;4.10;;
18973;SDS011;9621;48.690;9.466;2023-08-17T01:49:47;6.20;;;3.55;;
18973;SDS011;9621;48.690;9.466;2023-08-17T01:52:14;5.55;;;3.78;;
18973;SDS011;9621;48.690;9.466;2023-08-17T01:54:41;5.88;;;3.60;;
18973;SDS011;9621;48.690;9.466;2023-08-17T01:57:09;7.10;;;3.88;;
18973;SDS011;9621;48.690;9.466;2023-08-17T01:59:36;5.57;;;3.90;;
18973;SDS011;9621;48.690;9.466;2023-08-17T02:02:03;4.65;;;3.28;;
18973;SDS011;9621;48.690;9.466;2023-08-17T02:04:30;5.93;;;4.13;;
18973;SDS011;9621;48.690;9.466;2023-08-17T02:06:57;6.05;;;4.20;;
18973;SDS011;9621;48.690;9.466;2023-08-17T02:09:24;5.53;;;3.85;;
18973;SDS011;9621;48.690;9.466;2023-08-17T02:11:51;4.18;;;3.55;;
18973;SDS011;9621;48.690;9.466;2023-08-17T02:14:19;4.93;;;3.40;;
18973;SDS011;9621;48.690;9.466;2023-08-17T02:16:46;5.07;;;3.80;;
18973;SDS011;9621;48.690;9.466;2023-08-17T02:19:12;6.57;;;3.85;;
18973;SDS011;9621;48.690;9.466;2023-08-17T02:21:39;5.63;;;3.72;;
18973;SDS011;9621;48.690;9.466;2023-08-17T02:24:06;7.78;;;3.60;;
18973;SDS011;9621;48.690;9.466;2023-08-17T02:26:33;8.45;;;4.00;;
18973;SDS011;9621;48.690;9.466;2023-08-17T02:29:00;8.27;;;3.92;;
18973;SDS011;9621;48.690;9.466;2023-08-17T02:31:28;5.03;;;3.60;;
18973;SDS011;9621;48.690;9.466;2023-08-17T02:33:55;4.60;;;4.20;;
18973;SDS011;9621;48.690;9.466;2023-08-17T02:36:25;4.82;;;3.53;;
18973;SDS011;9621;48.690;9.466;2023-08-17T02:38:52;6.65;;;3.60;;
18973;SDS011;9621;48.690;9.466;2023-08-17T02:41:19;5.55;;;3.70;;
18973;SDS011;9621;48.690;9.466;2023-08-17T02:43:46;6.10;;;4.10;;
18973;SDS011;9621;48.690;9.466;2023-08-17T02:46:13;4.07;;;3.50;;
18973;SDS011;9621;48.690;9.466;2023-08-17T02:48:41;7.70;;;3.50;;
18973;SDS011;9621;48.690;9.466;2023-08-17T02:51:08;5.32;;;3.63;;
18973;SDS011;9621;48.690;9.466;2023-08-17T02:53:35;6.53;;;3.72;;
18973;SDS011;9621;48.690;9.466;2023-08-17T02:56:02;4.78;;;3.55;;
18973;SDS011;9621;48.690;9.466;2023-08-17T02:58:29;6.95;;;3.88;;
18973;SDS011;9621;48.690;9.466;2023-08-17T03:00:55;5.95;;;3.88;;
18973;SDS011;9621;48.690;9.466;2023-08-17T03:03:22;6.60;;;4.00;;
18973;SDS011;9621;48.690;9.466;2023-08-17T03:05:51;9.40;;;4.30;;
18973;SDS011;9621;48.690;9.466;2023-08-17T03:08:18;7.57;;;3.65;;
18973;SDS011;9621;48.690;9.466;2023-08-17T03:10:44;5.63;;;3.97;;
18973;SDS011;9621;48.690;9.466;2023-08-17T03:13:11;4.45;;;3.88;;
18973;SDS011;9621;48.690;9.466;2023-08-17T03:15:38;5.05;;;4.13;;
18973;SDS011;9621;48.690;9.466;2023-08-17T03:18:05;7.22;;;3.95;;
18973;SDS011;9621;48.690;9.466;2023-08-17T03:20:32;5.47;;;3.70;;
18973;SDS011;9621;48.690;9.466;2023-08-17T03:23:00;4.80;;;3.80;;
18973;SDS011;9621;48.690;9.466;2023-08-17T03:25:27;4.32;;;3.65;;
18973;SDS011;9621;48.690;9.466;2023-08-17T03:27:54;8.05;;;3.60;;
18973;SDS011;9621;48.690;9.466;2023-08-17T03:30:21;6.25;;;3.75;;
18973;SDS011;9621;48.690;9.466;2023-08-17T03:32:47;5.28;;;3.17;;
18973;SDS011;9621;48.690;9.466;2023-08-17T03:35:14;6.40;;;3.58;;
18973;SDS011;9621;48.690;9.466;2023-08-17T03:37:41;6.65;;;3.63;;
18973;SDS011;9621;48.690;9.466;2023-08-17T03:40:10;8.32;;;3.70;;
18973;SDS011;9621;48.690;9.466;2023-08-17T03:42:37;4.95;;;3.45;;
18973;SDS011;9621;48.690;9.466;2023-08-17T03:45:04;7.70;;;3.42;;
18973;SDS011;9621;48.690;9.466;2023-08-17T03:47:31;3.70;;;3.30;;
18973;SDS011;9621;48.690;9.466;2023-08-17T03:49:58;5.50;;;3.47;;
18973;SDS011;9621;48.690;9.466;2023-08-17T03:52:25;5.57;;;3.72;;
18973;SDS011;9621;48.690;9.466;2023-08-17T03:54:52;5.45;;;3.95;;
18973;SDS011;9621;48.690;9.466;2023-08-17T03:57:20;5.13;;;3.88;;
18973;SDS011;9621;48.690;9.466;2023-08-17T03:59:47;4.65;;;3.20;;
18973;SDS011;9621;48.690;9.466;2023-08-17T04:02:14;4.13;;;3.63;;
18973;SDS011;9621;48.690;9.466;2023-08-17T04:04:41;4.07;;;3.55;;
18973;SDS011;9621;48.690;9.466;2023-08-17T04:07:07;4.65;;;3.90;;
18973;SDS011;9621;48.690;9.466;2023-08-17T04:09:34;6.28;;;3.90;;
18973;SDS011;9621;48.690;9.466;2023-08-17T04:12:01;6.45;;;3.63;;
18973;SDS011;9621;48.690;9.466;2023-08-17T04:14:31;5.47;;;3.55;;
18973;SDS011;9621;48.690;9.466;2023-08-17T04:16:58;4.65;;;4.00;;
18973;SDS011;9621;48.690;9.466;2023-08-17T04:19:25;4.10;;;3.70;;
18973;SDS011;9621;48.690;9.466;2023-08-17T04:21:52;6.03;;;3.50;;
18973;SDS011;9621;48.690;9.466;2023-08-17T04:24:19;5.13;;;3.60;;
18973;SDS011;9621;48.690;9.466;2023-08-17T04:26:45;5.32;;;3.97;;
18973;SDS011;9621;48.690;9.466;2023-08-17T04:29:12;5.80;;;4.10;;
18973;SDS011;9621;48.690;9.466;2023-08-17T04:31:41;5.03;;;3.78;;
18973;SDS011;9621;48.690;9.466;2023-08-17T04:34:07;7.93;;;4.35;;
18973;SDS011;9621;48.690;9.466;2023-08-17T04:36:34;7.55;;;4.35;;
18973;SDS011;9621;48.690;9.466;2023-08-17T04:39:01;10.80;;;4.40;;
18973;SDS011;9621;48.690;9.466;2023-08-17T04:41:29;11.05;;;4.50;;
18973;SDS011;9621;48.690;9.466;2023-08-17T04:43:56;11.60;;;6.25;;
18973;SDS011;9621;48.690;9.466;2023-08-17T04:46:23;20.00;;;6.80;;
18973;SDS011;9621;48.690;9.466;2023-08-17T04:48:54;10.73;;;6.20;;
18973;SDS011;9621;48.690;9.466;2023-08-17T04:51:21;17.17;;;7.28;;
18973;SDS011;9621;48.690;9.466;2023-08-17T04:53:48;14.90;;;7.30;;
18973;SDS011;9621;48.690;9.466;2023-08-17T04:56:15;20.27;;;7.88;;
18973;SDS011;9621;48.690;9.466;2023-08-17T04:58:42;21.90;;;8.48;;
18973;SDS011;9621;48.690;9.466;2023-08-17T05:01:09;22.90;;;8.43;;
18973;SDS011;9621;48.690;9.466;2023-08-17T05:03:36;19.08;;;8.55;;
18973;SDS011;9621;48.690;9.466;2023-08-17T05:06:04;22.20;;;8.30;;
18973;SDS011;9621;48.690;9.466;2023-08-17T05:08:31;21.52;;;9.20;;
18973;SDS011;9621;48.690;9.466;2023-08-17T05:10:58;23.27;;;8.75;;
18973;SDS011;9621;48.690;9.466;2023-08-17T05:13:25;17.80;;;8.05;;
18973;SDS011;9621;48.690;9.466;2023-08-17T05:15:51;21.13;;;9.02;;
18973;SDS011;9621;48.690;9.466;2023-08-17T05:18:18;24.23;;;10.52;;
18973;SDS011;9621;48.690;9.466;2023-08-17T05:20:45;22.42;;;9.25;;
18973;SDS011;9621;48.690;9.466;2023-08-17T05:23:13;23.27;;;10.38;;
18973;SDS011;9621;48.690;9.466;2023-08-17T05:25:40;22.73;;;10.55;;
18973;SDS011;9621;48.690;9.466;2023-08-17T05:28:07;25.23;;;9.98;;
18973;SDS011;9621;48.690;9.466;2023-08-17T05:30:34;23.95;;;10.35;;
18973;SDS011;9621;48.690;9.466;2023-08-17T05:33:01;30.33;;;11.25;;
18973;SDS011;9621;48.690;9.466;2023-08-17T05:35:28;32.67;;;12.45;;
18973;SDS011;9621;48.690;9.466;2023-08-17T05:37:54;23.15;;;12.52;;
18973;SDS011;9621;48.690;9.466;2023-08-17T05:40:23;25.55;;;12.23;;
18973;SDS011;9621;48.690;9.466;2023-08-17T05:42:49;25.55;;;13.20;;
18973;SDS011;9621;48.690;9.466;2023-08-17T05:45:16;29.65;;;13.77;;
18973;SDS011;9621;48.690;9.466;2023-08-17T05:47:43;25.70;;;12.98;;
18973;SDS011;9621;48.690;9.466;2023-08-17T05:50:10;23.10;;;11.70;;
18973;SDS011;9621;48.690;9.466;2023-08-17T05:52:37;22.88;;;12.18;;
18973;SDS011;9621;48.690;9.466;2023-08-17T05:55:04;24.77;;;12.75;;
18973;SDS011;9621;48.690;9.466;2023-08-17T05:57:33;24.50;;;12.95;;
18973;SDS011;9621;48.690;9.466;2023-08-17T06:00:00;19.20;;;12.65;;
18973;SDS011;9621;48.690;9.466;2023-08-17T06:02:27;21.85;;;13.38;;
18973;SDS011;9621;48.690;9.466;2023-08-17T06:04:54;19.80;;;13.60;;
18973;SDS011;9621;48.690;9.466;2023-08-17T06:07:21;24.35;;;13.32;;
18973;SDS011;9621;48.690;9.466;2023-08-17T06:09:48;20.35;;;11.88;;
18973;SDS011;9621;48.690;9.466;2023-08-17T06:12:18;19.63;;;11.95;;
18973;SDS011;9621;48.690;9.466;2023-08-17T06:14:49;19.13;;;12.25;;
18973;SDS011;9621;48.690;9.466;2023-08-17T06:17:15;18.50;;;11.57;;
18973;SDS011;9621;48.690;9.466;2023-08-17T06:19:42;21.67;;;13.95;;
18973;SDS011;9621;48.690;9.466;2023-08-17T06:22:09;22.83;;;13.48;;
18973;SDS011;9621;48.690;9.466;2023-08-17T06:24:37;19.83;;;13.60;;
18973;SDS011;9621;48.690;9.466;2023-08-17T06:27:03;22.60;;;15.10;;
18973;SDS011;9621;48.690;9.466;2023-08-17T06:29:30;20.73;;;13.00;;
18973;SDS011;9621;48.690;9.466;2023-08-17T06:31:59;21.60;;;13.43;;
18973;SDS011;9621;48.690;9.466;2023-08-17T06:34:26;20.98;;;13.07;;
18973;SDS011;9621;48.690;9.466;2023-08-17T06:36:59;22.27;;;14.18;;
18973;SDS011;9621;48.690;9.466;2023-08-17T06:39:27;20.02;;;12.60;;
18973;SDS011;9621;48.690;9.466;2023-08-17T06:41:54;20.77;;;12.98;;
18973;SDS011;9621;48.690;9.466;2023-08-17T06:44:21;20.23;;;13.40;;
18973;SDS011;9621;48.690;9.466;2023-08-17T06:46:48;20.45;;;12.68;;
18973;SDS011;9621;48.690;9.466;2023-08-17T06:49:16;25.27;;;14.00;;
18973;SDS011;9621;48.690;9.466;2023-08-17T06:51:43;21.10;;;12.98;;
18973;SDS011;9621;48.690;9.466;2023-08-17T06:54:10;19.25;;;12.05;;
18973;SDS011;9621;48.690;9.466;2023-08-17T06:56:36;18.38;;;12.45;;
18973;SDS011;9621;48.690;9.466;2023-08-17T06:59:03;19.50;;;12.68;;
18973;SDS011;9621;48.690;9.466;2023-08-17T07:01:31;18.45;;;12.55;;
18973;SDS011;9621;48.690;9.466;2023-08-17T07:03:58;16.00;;;11.35;;
18973;SDS011;9621;48.690;9.466;2023-08-17T07:06:26;19.40;;;11.82;;
18973;SDS011;9621;48.690;9.466;2023-08-17T07:08:54;17.38;;;12.27;;
18973;SDS011;9621;48.690;9.466;2023-08-17T07:11:21;17.17;;;11.68;;
18973;SDS011;9621;48.690;9.466;2023-08-17T07:13:48;16.73;;;11.55;;
18973;SDS011;9621;48.690;9.466;2023-08-17T07:16:15;18.80;;;11.77;;
18973;SDS011;9621;48.690;9.466;2023-08-17T07:18:42;18.27;;;10.95;;
18973;SDS011;9621;48.690;9.466;2023-08-17T07:21:09;14.52;;;10.60;;
18973;SDS011;9621;48.690;9.466;2023-08-17T07:23:37;18.48;;;11.27;;
18973;SDS011;9621;48.690;9.466;2023-08-17T07:26:04;15.93;;;10.90;;
18973;SDS011;9621;48.690;9.466;2023-08-17T07:28:31;15.32;;;10.27;;
18973;SDS011;9621;48.690;9.466;2023-08-17T07:30:58;15.27;;;10.13;;
18973;SDS011;9621;48.690;9.466;2023-08-17T07:33:24;15.90;;;10.70;;
18973;SDS011;9621;48.690;9.466;2023-08-17T07:35:51;13.82;;;9.20;;
18973;SDS011;9621;48.690;9.466;2023-08-17T07:38:20;11.85;;;8.50;;
18973;SDS011;9621;48.690;9.466;2023-08-17T07:40:49;15.20;;;9.70;;
18973;SDS011;9621;48.690;9.466;2023-08-17T07:43:16;13.55;;;9.73;;
18973;SDS011;9621;48.690;9.466;2023-08-17T07:45:43;14.38;;;10.75;;
18973;SDS011;9621;48.690;9.466;2023-08-17T07:48:09;13.50;;;9.93;;
18973;SDS011;9621;48.690;9.466;2023-08-17T07:50:36;10.95;;;8.57;;
18973;SDS011;9621;48.690;9.466;2023-08-17T07:53:03;13.88;;;8.65;;
18973;SDS011;9621;48.690;9.466;2023-08-17T07:55:30;10.10;;;7.95;;
18973;SDS011;9621;48.690;9.466;2023-08-17T07:57:59;12.35;;;9.15;;
18973;SDS011;9621;48.690;9.466;2023-08-17T08:00:26;12.27;;;8.43;;
18973;SDS011;9621;48.690;9.466;2023-08-17T08:02:53;10.20;;;7.85;;
18973;SDS011;9621;48.690;9.466;2023-08-17T08:05:19;12.95;;;8.05;;
18973;SDS011;9621;48.690;9.466;2023-08-17T08:07:46;10.48;;;6.82;;
18973;SDS011;9621;48.690;9.466;2023-08-17T08:10:13;10.55;;;6.50;;
18973;SDS011;9621;48.690;9.466;2023-08-17T08:12:40;11.07;;;6.85;;
18973;SDS011;9621;48.690;9.466;2023-08-17T08:15:09;10.20;;;7.50;;
18973;SDS011;9621;48.690;9.466;2023-08-17T08:17:36;11.45;;;8.50;;
18973;SDS011;9621;48.690;9.466;2023-08-17T08:20:03;9.77;;;6.65;;
18973;SDS011;9621;48.690;9.466;2023-08-17T08:22:31;11.75;;;7.30;;
18973;SDS011;9621;48.690;9.466;2023-08-17T08:24:58;8.73;;;6.82;;
18973;SDS011;9621;48.690;9.466;2023-08-17T08:27:25;9.55;;;6.97;;
18973;SDS011;9621;48.690;9.466;2023-08-17T08:29:51;9.40;;;6.30;;
18973;SDS011;9621;48.690;9.466;2023-08-17T08:32:19;7.63;;;6.50;;
18973;SDS011;9621;48.690;9.466;2023-08-17T08:34:46;10.65;;;7.20;;
18973;SDS011;9621;48.690;9.466;2023-08-17T08:37:13;10.27;;;7.25;;
18973;SDS011;9621;48.690;9.466;2023-08-17T08:39:50;10.10;;;7.38;;
18973;SDS011;9621;48.690;9.466;2023-08-17T08:42:18;10.30;;;7.55;;
18973;SDS011;9621;48.690;9.466;2023-08-17T08:44:45;10.30;;;6.57;;
18973;SDS011;9621;48.690;9.466;2023-08-17T08:47:13;9.32;;;7.18;;
18973;SDS011;9621;48.690;9.466;2023-08-17T08:49:48;9.98;;;7.53;;
18973;SDS011;9621;48.690;9.466;2023-08-17T08:52:22;9.73;;;7.25;;
18973;SDS011;9621;48.690;9.466;2023-08-17T08:54:53;9.40;;;6.53;;
18973;SDS011;9621;48.690;9.466;2023-08-17T08:57:22;8.05;;;6.72;;
18973;SDS011;9621;48.690;9.466;2023-08-17T08:59:50;10.80;;;6.90;;
18973;SDS011;9621;48.690;9.466;2023-08-17T09:02:17;7.22;;;6.00;;
18973;SDS011;9621;48.690;9.466;2023-08-17T09:04:45;7.65;;;5.60;;
18973;SDS011;9621;48.690;9.466;2023-08-17T09:07:13;7.63;;;5.90;;
18973;SDS011;9621;48.690;9.466;2023-08-17T09:09:40;7.45;;;5.38;;
18973;SDS011;9621;48.690;9.466;2023-08-17T09:12:07;7.93;;;6.13;;
18973;SDS011;9621;48.690;9.466;2023-08-17T09:14:35;7.80;;;5.43;;
18973;SDS011;9621;48.690;9.466;2023-08-17T09:17:02;7.22;;;5.03;;
18973;SDS011;9621;48.690;9.466;2023-08-17T09:19:31;6.00;;;5.35;;
18973;SDS011;9621;48.690;9.466;2023-08-17T09:21:59;8.85;;;4.88;;
18973;SDS011;9621;48.690;9.466;2023-08-17T09:24:33;5.40;;;4.85;;
18973;SDS011;9621;48.690;9.466;2023-08-17T09:27:00;6.03;;;5.07;;
18973;SDS011;9621;48.690;9.466;2023-08-17T09:29:27;5.25;;;4.60;;
18973;SDS011;9621;48.690;9.466;2023-08-17T09:31:57;5.32;;;4.40;;
18973;SDS011;9621;48.690;9.466;2023-08-17T09:34:24;5.95;;;5.03;;
18973;SDS011;9621;48.690;9.466;2023-08-17T09:36:51;6.45;;;4.43;;
18973;SDS011;9621;48.690;9.466;2023-08-17T09:39:19;4.85;;;4.20;;
18973;SDS011;9621;48.690;9.466;2023-08-17T09:41:46;5.70;;;3.97;;
18973;SDS011;9621;48.690;9.466;2023-08-17T09:44:13;5.10;;;4.50;;
18973;SDS011;9621;48.690;9.466;2023-08-17T09:46:42;7.78;;;4.57;;
18973;SDS011;9621;48.690;9.466;2023-08-17T09:49:10;5.60;;;4.10;;
18973;SDS011;9621;48.690;9.466;2023-08-17T09:51:37;4.95;;;4.40;;
18973;SDS011;9621;48.690;9.466;2023-08-17T09:54:04;5.65;;;4.43;;
18973;SDS011;9621;48.690;9.466;2023-08-17T09:56:32;6.70;;;5.28;;
18973;SDS011;9621;48.690;9.466;2023-08-17T09:59:00;6.30;;;4.38;;
18973;SDS011;9621;48.690;9.466;2023-08-17T10:01:27;4.88;;;4.13;;
18973;SDS011;9621;48.690;9.466;2023-08-17T10:03:56;4.88;;;4.10;;
18973;SDS011;9621;48.690;9.466;2023-08-17T10:06:25;4.80;;;4.00;;
18973;SDS011;9621;48.690;9.466;2023-08-17T10:08:54;5.20;;;3.67;;
18973;SDS011;9621;48.690;9.466;2023-08-17T10:11:24;4.88;;;3.95;;
18973;SDS011;9621;48.690;9.466;2023-08-17T10:13:57;5.22;;;4.30;;
18973;SDS011;9621;48.690;9.466;2023-08-17T10:16:32;5.03;;;4.40;;
18973;SDS011;9621;48.690;9.466;2023-08-17T10:19:09;6.15;;;3.80;;
18973;SDS011;9621;48.690;9.466;2023-08-17T10:21:43;5.30;;;4.13;;
18973;SDS011;9621;48.690;9.466;2023-08-17T10:24:16;5.32;;;4.30;;
18973;SDS011;9621;48.690;9.466;2023-08-17T10:26:44;5.13;;;4.45;;
18973;SDS011;9621;48.690;9.466;2023-08-17T10:29:16;4.72;;;3.85;;
18973;SDS011;9621;48.690;9.466;2023-08-17T10:31:44;5.25;;;4.03;;
18973;SDS011;9621;48.690;9.466;2023-08-17T10:34:11;4.70;;;3.90;;
18973;SDS011;9621;48.690;9.466;2023-08-17T10:36:39;5.10;;;3.55;;
18973;SDS011;9621;48.690;9.466;2023-08-17T10:39:22;4.40;;;4.00;;
18973;SDS011;9621;48.690;9.466;2023-08-17T10:41:51;3.97;;;3.63;;
18973;SDS011;9621;48.690;9.466;2023-08-17T10:44:37;4.32;;;3.75;;
18973;SDS011;9621;48.690;9.466;2023-08-17T10:47:18;6.75;;;4.07;;
18973;SDS011;9621;48.690;9.466;2023-08-17T10:49:47;5.53;;;3.85;;
18973;SDS011;9621;48.690;9.466;2023-08-17T10:52:24;8.50;;;4.22;;
18973;SDS011;9621;48.690;9.466;2023-08-17T10:54:55;7.45;;;4.13;;
18973;SDS011;9621;48.690;9.466;2023-08-17T10:57:27;3.97;;;3.58;;
18973;SDS011;9621;48.690;9.466;2023-08-17T11:00:06;5.78;;;4.10;;
18973;SDS011;9621;48.690;9.466;2023-08-17T11:02:35;4.05;;;3.50;;
18973;SDS011;9621;48.690;9.466;2023-08-17T11:05:03;8.65;;;4.15;;
18973;SDS011;9621;48.690;9.466;2023-08-17T11:07:38;4.03;;;3.05;;
18973;SDS011;9621;48.690;9.466;2023-08-17T11:10:10;4.47;;;3.90;;
18973;SDS011;9621;48.690;9.466;2023-08-17T11:12:38;4.47;;;4.00;;
18973;SDS011;9621;48.690;9.466;2023-08-17T11:15:09;7.03;;;3.92;;
18973;SDS011;9621;48.690;9.466;2023-08-17T11:17:36;5.13;;;4.07;;
18973;SDS011;9621;48.690;9.466;2023-08-17T11:20:04;5.60;;;3.67;;
18973;SDS011;9621;48.690;9.466;2023-08-17T11:22:33;6.22;;;3.58;;
18973;SDS011;9621;48.690;9.466;2023-08-17T11:25:01;8.57;;;3.95;;
18973;SDS011;9621;48.690;9.466;2023-08-17T11:27:30;4.38;;;3.97;;
18973;SDS011;9621;48.690;9.466;2023-08-17T11:29:56;4.78;;;3.90;;
18973;SDS011;9621;48.690;9.466;2023-08-17T11:32:25;3.70;;;3.25;;
18973;SDS011;9621;48.690;9.466;2023-08-17T11:34:52;4.68;;;3.15;;
18973;SDS011;9621;48.690;9.466;2023-08-17T11:37:19;6.63;;;3.72;;
18973;SDS011;9621;48.690;9.466;2023-08-17T11:39:48;3.72;;;3.38;;
18973;SDS011;9621;48.690;9.466;2023-08-17T11:42:15;5.38;;;3.45;;
18973;SDS011;9621;48.690;9.466;2023-08-17T11:44:42;4.50;;;4.10;;
18973;SDS011;9621;48.690;9.466;2023-08-17T11:47:10;7.93;;;3.78;;
18973;SDS011;9621;48.690;9.466;2023-08-17T11:49:38;4.90;;;3.30;;
18973;SDS011;9621;48.690;9.466;2023-08-17T11:52:05;4.32;;;3.70;;
18973;SDS011;9621;48.690;9.466;2023-08-17T11:54:39;5.57;;;3.70;;
18973;SDS011;9621;48.690;9.466;2023-08-17T11:57:06;3.90;;;3.22;;
18973;SDS011;9621;48.690;9.466;2023-08-17T11:59:33;3.75;;;3.40;;
18973;SDS011;9621;48.690;9.466;2023-08-17T12:02:01;6.20;;;4.10;;
18973;SDS011;9621;48.690;9.466;2023-08-17T12:04:28;5.60;;;3.80;;
18973;SDS011;9621;48.690;9.466;2023-08-17T12:06:56;5.90;;;3.85;;
18973;SDS011;9621;48.690;9.466;2023-08-17T12:09:23;5.18;;;3.70;;
18973;SDS011;9621;48.690;9.466;2023-08-17T12:11:53;4.28;;;3.88;;
18973;SDS011;9621;48.690;9.466;2023-08-17T12:14:25;5.30;;;3.92;;
18973;SDS011;9621;48.690;9.466;2023-08-17T12:16:53;4.43;;;4.00;;
18973;SDS011;9621;48.690;9.466;2023-08-17T12:19:21;4.43;;;3.88;;
18973;SDS011;9621;48.690;9.466;2023-08-17T12:21:50;4.53;;;4.10;;
18973;SDS011;9621;48.690;9.466;2023-08-17T12:24:18;5.00;;;4.22;;
18973;SDS011;9621;48.690;9.466;2023-08-17T12:26:46;9.95;;;4.53;;
18973;SDS011;9621;48.690;9.466;2023-08-17T12:29:13;5.00;;;4.10;;
18973;SDS011;9621;48.690;9.466;2023-08-17T12:31:40;7.45;;;4.30;;
18973;SDS011;9621;48.690;9.466;2023-08-17T12:34:07;5.55;;;4.15;;
18973;SDS011;9621;48.690;9.466;2023-08-17T12:36:34;6.68;;;4.15;;
18973;SDS011;9621;48.690;9.466;2023-08-17T12:39:02;7.18;;;3.78;;
18973;SDS011;9621;48.690;9.466;2023-08-17T12:41:32;6.85;;;4.07;;
18973;SDS011;9621;48.690;9.466;2023-08-17T12:43:59;4.30;;;3.90;;
18973;SDS011;9621;48.690;9.466;2023-08-17T12:46:26;6.30;;;4.15;;
18973;SDS011;9621;48.690;9.466;2023-08-17T12:48:57;4.07;;;3.55;;
18973;SDS011;9621;48.690;9.466;2023-08-17T12:51:24;4.25;;;3.80;;
18973;SDS011;9621;48.690;9.466;2023-08-17T12:53:51;5.45;;;4.10;;
18973;SDS011;9621;48.690;9.466;2023-08-17T12:56:18;4.03;;;3.53;;
18973;SDS011;9621;48.690;9.466;2023-08-17T12:58:46;4.47;;;3.83;;
18973;SDS011;9621;48.690;9.466;2023-08-17T13:01:13;6.45;;;3.40;;
18973;SDS011;9621;48.690;9.466;2023-08-17T13:03:40;5.47;;;3.97;;
18973;SDS011;9621;48.690;9.466;2023-08-17T13:06:07;6.18;;;3.58;;
18973;SDS011;9621;48.690;9.466;2023-08-17T13:08:34;5.85;;;3.40;;
18973;SDS011;9621;48.690;9.466;2023-08-17T13:11:01;4.18;;;3.75;;
18973;SDS011;9621;48.690;9.466;2023-08-17T13:13:27;4.20;;;3.80;;
18973;SDS011;9621;48.690;9.466;2023-08-17T13:15:56;4.40;;;3.60;;
18973;SDS011;9621;48.690;9.466;2023-08-17T13:18:23;6.68;;;4.00;;
18973;SDS011;9621;48.690;9.466;2023-08-17T13:20:50;4.30;;;3.85;;
18973;SDS011;9621;48.690;9.466;2023-08-17T13:23:16;5.65;;;4.30;;
18973;SDS011;9621;48.690;9.466;2023-08-17T13:25:43;5.30;;;4.35;;
18973;SDS011;9621;48.690;9.466;2023-08-17T13:28:10;4.47;;;4.05;;
18973;SDS011;9621;48.690;9.466;2023-08-17T13:30:38;4.57;;;4.18;;
18973;SDS011;9621;48.690;9.466;2023-08-17T13:33:06;6.45;;;4.18;;
18973;SDS011;9621;48.690;9.466;2023-08-17T13:35:33;5.00;;;4.50;;
18973;SDS011;9621;48.690;9.466;2023-08-17T13:38:00;4.88;;;4.32;;
18973;SDS011;9621;48.690;9.466;2023-08-17T13:40:29;5.95;;;4.65;;
18973;SDS011;9621;48.690;9.466;2023-08-17T13:42:56;5.05;;;4.55;;
18973;SDS011;9621;48.690;9.466;2023-08-17T13:45:23;4.95;;;4.45;;
18973;SDS011;9621;48.690;9.466;2023-08-17T13:47:50;4.93;;;4.43;;
18973;SDS011;9621;48.690;9.466;2023-08-17T13:50:19;8.57;;;5.13;;
18973;SDS011;9621;48.690;9.466;2023-08-17T13:52:46;7.15;;;5.00;;
18973;SDS011;9621;48.690;9.466;2023-08-17T13:55:13;6.95;;;5.07;;
18973;SDS011;9621;48.690;9.466;2023-08-17T13:57:40;6.43;;;4.90;;
18973;SDS011;9621;48.690;9.466;2023-08-17T14:00:07;8.27;;;5.10;;
18973;SDS011;9621;48.690;9.466;2023-08-17T14:02:35;9.18;;;4.32;;
18973;SDS011;9621;48.690;9.466;2023-08-17T14:05:02;5.47;;;4.97;;
18973;SDS011;9621;48.690;9.466;2023-08-17T14:07:30;5.78;;;5.10;;
18973;SDS011;9621;48.690;9.466;2023-08-17T14:09:57;6.68;;;4.88;;
18973;SDS011;9621;48.690;9.466;2023-08-17T14:12:24;8.77;;;4.93;;
18973;SDS011;9621;48.690;9.466;2023-08-17T14:14:51;5.38;;;4.85;;
18973;SDS011;9621;48.690;9.466;2023-08-17T14:17:17;6.63;;;5.40;;
18973;SDS011;9621;48.690;9.466;2023-08-17T14:19:44;5.50;;;4.78;;
18973;SDS011;9621;48.690;9.466;2023-08-17T14:22:11;6.70;;;4.85;;
18973;SDS011;9621;48.690;9.466;2023-08-17T14:24:39;6.95;;;5.70;;
18973;SDS011;9621;48.690;9.466;2023-08-17T14:27:06;7.15;;;5.32;;
18973;SDS011;9621;48.690;9.466;2023-08-17T14:29:33;5.72;;;5.13;;
18973;SDS011;9621;48.690;9.466;2023-08-17T14:32:00;6.70;;;4.97;;
18973;SDS011;9621;48.690;9.466;2023-08-17T14:34:27;6.22;;;5.32;;
18973;SDS011;9621;48.690;9.466;2023-08-17T14:36:54;5.53;;;4.88;;
18973;SDS011;9621;48.690;9.466;2023-08-17T14:39:21;7.15;;;5.63;;
18973;SDS011;9621;48.690;9.466;2023-08-17T14:41:49;6.43;;;5.43;;
18973;SDS011;9621;48.690;9.466;2023-08-17T14:44:17;7.88;;;5.55;;
18973;SDS011;9621;48.690;9.466;2023-08-17T14:46:44;7.32;;;5.50;;
18973;SDS011;9621;48.690;9.466;2023-08-17T14:49:11;6.10;;;5.43;;
18973;SDS011;9621;48.690;9.466;2023-08-17T14:51:38;10.02;;;5.75;;
18973;SDS011;9621;48.690;9.466;2023-08-17T14:54:06;7.15;;;6.10;;
18973;SDS011;9621;48.690;9.466;2023-08-17T14:56:33;9.73;;;5.88;;
18973;SDS011;9621;48.690;9.466;2023-08-17T14:59:01;7.53;;;6.68;;